Terminal Aerodrome Forecast
Issued by NWS

Home | Current Version | Previous Version | Text Only | Print | Product List | Glossary Off
Versions: 1 2 3 4 5 6 7 8 9 10 11 12 13 14 15 16 17 18 19 20 21 22 23 24 25

000
FTUS43 KBIS 091512 AAA
TAFMOT
TAF AMD
KMOT 091512Z 0915/1012 24005KT P6SM FEW300
     FM091600 26010KT P6SM SCT140 SCT220
     FM092000 28014G23KT P6SM SCT250
     FM100300 29011G19KT P6SM SCT250 WS020/31040KT=

USA.gov is the U.S. government's official web portal to all federal, state and local government web resources and services.